Lake Ozark, MO (65049)

10:42 AM CDT on July 26, 2016 (GMT -0500)
Four Seasons, Lake Ozark | | Change Station

Elev 760 ft 38.22 °N, 92.71 °W | Updated 23 seconds ago

Overcast
Overcast
81.5 °F
Feels Like 89 °F
N
0.7
Wind Variable Wind from NNE
Gusts 0.0 mph

Today
High -- | Low -- °F
--% Chance of Precip.
Yesterday
High -- | Low -- °F
Precip. -- in
Pressure 30.09 in
Visibility 10.0 miles
Clouds Overcast 2700 ft
Heat Index 89 °F
Dew Point 76 °F
Humidity 84%
Rainfall 0.00 in
Snow Depth Not available.
6:08 AM 8:25 PM
Waning Gibbous, 53% visible
METAR KAIZ 261456Z AUTO 05004KT 10SM OVC027 26/23 A3006 RMK AO2 SLP189 T02560228 50000
Pressure 30.09 in
Visibility 10.0 miles
Clouds Overcast 2700 ft
Heat Index 89 °F
Dew Point 76 °F
Humidity 84%
Rainfall 0.00 in
Snow Depth Not available.
6:08 AM 8:25 PM
Waning Gibbous, 53% visible
METAR KAIZ 261456Z AUTO 05004KT 10SM OVC027 26/23 A3006 RMK AO2 SLP189 T02560228 50000

10-Day Weather Forecast

Almanac

Astronomy

Jul. 26, 2016 Rise Set
Actual Time
Civil Twilight
Nautical Twilight
Astronomical Twilight
Moon
Length of Visible Light
Length of Day
Tomorrow will be .
, % of the Moon is Illuminated

Today's Extremes

State Highs State Lows

Community

WunderPhotos

Upload Photos

1,927,617 photos uploaded!

WunderBlog® & News

Nearby

Air Quality

  Air Quality AQ Index Pollutant
Not available.

Snow Depth

Station Depth Elevation

Earthquake Activity

City Distance Mag. Time & Date
Minimum magnitude displayed is 2.5.

Coastal Water Temperatures

Place Temperature

Stations

Nearby Weather Stations

Station Location Temp. Windchill Dew Point Humidity Wind Precip. Elev Updated Type
                   

Watches & Warnings

There are currently no watches in effect.